Time;durP1;ratioP1;P1;durP2;ratioP2;P2;SDS_P1;SDS_P2;PMS_P1;PMS_P2;Temp;Humidity;BMP_temperature;BMP_pressure;BME280_temperature;BME280_humidity;BME280_pressure;Samples;Min_cycle;Max_cycle;Signal;HPM_P1;HPM_P2
2022/11/04 00:01:46;;;;;;;17.23;4.30;;;10.60;99.90;;;;;;5017062;28;20398;-79
2022/11/04 00:04:14;;;;;;;14.32;3.92;;;10.60;99.90;;;;;;5018140;28;20042;-80
2022/11/04 00:06:40;;;;;;;13.52;4.53;;;10.70;99.90;;;;;;5019093;28;20048;-82
2022/11/04 00:09:09;;;;;;;22.73;4.07;;;10.80;99.90;;;;;;5027312;28;20029;-79
2022/11/04 00:14:19;;;;;;;13.32;4.82;;;10.90;99.90;;;;;;5019382;28;20057;-79
2022/11/04 00:28:41;;;;;;;11.57;4.15;;;11.00;99.90;;;;;;5023242;28;20095;-79
2022/11/04 00:30:29;;;;;;;14.13;4.65;;;11.20;99.90;;;;;;5010224;28;20041;-80
2022/11/04 00:35:38;;;;;;;15.75;3.55;;;11.30;99.90;;;;;;5017361;28;20032;-80
2022/11/04 00:38:04;;;;;;;17.75;4.60;;;11.30;99.90;;;;;;5029301;28;20022;-79
2022/11/04 00:40:30;;;;;;;15.35;4.50;;;11.30;99.90;;;;;;5024041;28;20105;-79
2022/11/04 00:42:56;;;;;;;14.00;3.53;;;11.20;99.90;;;;;;5021967;28;20029;-81
2022/11/04 00:45:21;;;;;;;16.75;4.35;;;11.30;99.90;;;;;;5017200;28;20014;-79
2022/11/04 00:47:47;;;;;;;12.93;3.95;;;11.40;99.90;;;;;;5025940;28;20060;-79
2022/11/04 00:50:13;;;;;;;12.18;4.13;;;11.40;99.90;;;;;;5014650;28;20033;-79
2022/11/04 00:52:39;;;;;;;19.52;3.50;;;11.50;99.90;;;;;;5022897;28;20018;-78
2022/11/04 00:55:05;;;;;;;21.00;5.35;;;11.50;99.90;;;;;;5012519;28;20423;-80
2022/11/04 00:57:31;;;;;;;21.08;5.15;;;11.60;99.90;;;;;;5019325;28;20022;-80
2022/11/04 00:59:57;;;;;;;16.05;4.03;;;11.60;99.90;;;;;;5011097;28;20499;-81
2022/11/04 01:02:22;;;;;;;11.40;3.78;;;11.70;99.90;;;;;;5021979;28;20026;-80
2022/11/04 01:04:48;;;;;;;10.95;4.50;;;11.80;99.90;;;;;;5037640;28;20094;-82
2022/11/04 01:07:14;;;;;;;25.60;4.13;;;11.80;99.90;;;;;;5018816;28;20504;-80
2022/11/04 01:09:40;;;;;;;15.93;4.40;;;11.80;99.90;;;;;;5023826;28;20018;-80
2022/11/04 01:12:06;;;;;;;12.65;4.05;;;11.80;99.90;;;;;;5016750;28;20054;-80
2022/11/04 01:14:32;;;;;;;14.88;4.28;;;11.70;99.90;;;;;;5024760;28;20060;-80
2022/11/04 01:16:57;;;;;;;12.93;4.25;;;11.60;99.90;;;;;;5014867;28;20022;-80
2022/11/04 01:19:23;;;;;;;16.40;5.70;;;11.60;99.90;;;;;;5024659;28;20085;-80
2022/11/04 01:21:51;;;;;;;19.42;4.95;;;11.40;99.90;;;;;;5016284;28;20493;-81
2022/11/04 01:24:17;;;;;;;18.73;4.35;;;11.40;99.90;;;;;;5019252;28;20100;-80
2022/11/04 01:26:42;;;;;;;13.50;3.90;;;11.20;99.90;;;;;;5019712;28;20089;-80
2022/11/04 01:29:08;;;;;;;15.45;4.20;;;11.00;99.90;;;;;;5021515;28;20022;-80
2022/11/04 01:31:34;;;;;;;17.02;3.95;;;11.00;99.90;;;;;;5018240;28;20021;-79
2022/11/04 01:34:00;;;;;;;21.27;5.55;;;11.00;99.90;;;;;;5016482;28;20022;-79
2022/11/04 01:36:27;;;;;;;10.85;3.95;;;10.90;99.90;;;;;;5016859;28;20038;-79
2022/11/04 01:38:55;;;;;;;16.65;4.68;;;10.90;99.90;;;;;;5035422;28;20095;-80
2022/11/04 01:41:27;;;;;;;19.88;4.70;;;10.80;99.90;;;;;;5014379;28;20509;-80
2022/11/04 01:44:03;;;;;;;19.13;4.93;;;10.80;99.90;;;;;;5026306;28;20049;-80
2022/11/04 01:46:42;;;;;;;19.00;4.57;;;10.80;99.90;;;;;;5019587;28;20085;-79
2022/11/04 01:49:17;;;;;;;16.33;5.93;;;10.80;99.90;;;;;;5020068;28;20037;-80
2022/11/04 01:51:43;;;;;;;13.45;3.78;;;10.80;99.90;;;;;;5016933;28;20034;-80
2022/11/04 01:54:10;;;;;;;14.95;3.85;;;10.90;99.90;;;;;;5019603;28;20029;-80
2022/11/04 01:56:38;;;;;;;7.93;3.60;;;10.90;99.90;;;;;;5013270;28;20498;-80
2022/11/04 01:59:10;;;;;;;20.05;4.88;;;11.10;99.90;;;;;;5016796;28;20478;-80
2022/11/04 02:01:36;;;;;;;12.88;3.92;;;11.20;99.90;;;;;;5015856;28;20022;-79
2022/11/04 02:06:48;;;;;;;12.10;4.57;;;11.50;99.90;;;;;;5017972;28;20430;-81
2022/11/04 02:09:17;;;;;;;14.43;3.17;;;11.60;99.90;;;;;;5027017;28;20183;-82
2022/11/04 02:14:27;;;;;;;9.50;3.22;;;11.50;99.90;;;;;;5024134;28;20115;-83
2022/11/04 02:17:05;;;;;;;12.15;3.80;;;11.40;99.90;;;;;;5020263;28;20029;-83
2022/11/04 02:19:54;;;;;;;18.00;4.47;;;11.30;99.90;;;;;;5025760;28;20018;-83
2022/11/04 02:22:52;;;;;;;15.05;3.72;;;11.30;99.90;;;;;;5019431;28;20113;-81
2022/11/04 02:25:42;;;;;;;11.90;3.90;;;11.20;99.90;;;;;;5018417;28;20022;-81
2022/11/04 02:28:26;;;;;;;15.02;3.83;;;11.20;99.90;;;;;;5022320;28;20105;-83
2022/11/04 02:31:04;;;;;;;15.07;4.50;;;11.10;99.90;;;;;;5017613;28;20030;-83
2022/11/04 02:33:32;;;;;;;15.45;3.70;;;11.10;99.90;;;;;;5021791;28;20701;-81
2022/11/04 02:36:04;;;;;;;9.02;3.30;;;11.10;99.90;;;;;;5014564;28;20030;-82
2022/11/04 02:38:35;;;;;;;14.02;3.97;;;11.10;99.90;;;;;;5021171;28;20026;-83
2022/11/04 02:41:12;;;;;;;;;;;11.10;99.90;;;;;;5020111;28;20020;-83
2022/11/04 02:43:38;;;;;;;13.18;3.65;;;11.00;99.90;;;;;;5023703;28;20375;-81
2022/11/04 02:46:04;;;;;;;16.05;5.63;;;11.00;99.90;;;;;;5024771;28;20049;-81
2022/11/04 02:48:41;;;;;;;7.75;3.75;;;11.00;99.90;;;;;;5023938;28;20032;-81
2022/11/04 02:51:35;;;;;;;11.82;3.35;;;11.00;99.90;;;;;;5016917;28;20550;-81
2022/11/04 02:54:33;;;;;;;20.42;3.70;;;10.90;99.90;;;;;;5033983;28;20034;-81
2022/11/04 02:57:02;;;;;;;12.00;4.32;;;10.90;99.90;;;;;;5018553;28;20446;-82
2022/11/04 02:59:32;;;;;;;9.90;3.50;;;10.90;99.90;;;;;;5017593;28;20018;-83
2022/11/04 03:02:02;;;;;;;8.53;2.87;;;10.90;99.90;;;;;;5020239;28;20022;-83
2022/11/04 03:04:32;;;;;;;10.40;3.60;;;11.00;99.90;;;;;;5019630;28;20034;-80
2022/11/04 03:07:00;;;;;;;16.73;4.17;;;11.00;99.90;;;;;;5019283;28;20032;-81
2022/11/04 03:09:29;;;;;;;14.25;4.68;;;11.00;99.90;;;;;;5025890;28;20113;-80
2022/11/04 03:12:04;;;;;;;14.80;3.58;;;11.10;99.90;;;;;;5013770;28;20049;-82
2022/11/04 03:14:42;;;;;;;16.60;4.43;;;11.10;99.90;;;;;;5024871;28;20140;-81
2022/11/04 03:17:18;;;;;;;8.45;2.70;;;11.10;99.90;;;;;;5017782;28;20022;-82
2022/11/04 03:19:54;;;;;;;10.18;3.17;;;11.20;99.90;;;;;;5024447;28;20099;-80
2022/11/04 03:22:24;;;;;;;10.70;2.88;;;11.20;99.90;;;;;;5022195;28;20022;-81
2022/11/04 03:24:51;;;;;;;8.75;3.03;;;11.30;99.90;;;;;;5023081;28;20505;-81
2022/11/04 03:27:38;;;;;;;6.97;3.13;;;11.40;99.90;;;;;;5018435;28;20033;-85
2022/11/04 03:30:13;;;;;;;11.25;3.95;;;11.30;99.90;;;;;;5019769;28;20022;-81
2022/11/04 03:32:55;;;;;;;17.63;3.05;;;11.40;99.90;;;;;;5018848;28;20018;-84
2022/11/04 03:35:21;;;;;;;13.82;3.65;;;11.40;99.90;;;;;;5012682;28;20056;-81
2022/11/04 03:37:48;;;;;;;10.52;3.40;;;11.50;99.90;;;;;;5020892;28;20032;-83
2022/11/04 03:40:15;;;;;;;16.02;3.55;;;11.50;99.90;;;;;;5027320;28;20026;-81
2022/11/04 03:42:49;;;;;;;13.98;3.13;;;11.50;99.90;;;;;;5024232;28;20097;-79
2022/11/04 03:45:15;;;;;;;9.73;3.25;;;11.50;99.90;;;;;;5018056;28;20084;-83
2022/11/04 03:47:41;;;;;;;6.32;3.00;;;11.40;99.90;;;;;;5025220;28;20091;-81
2022/11/04 03:50:15;;;;;;;9.75;2.90;;;11.40;99.90;;;;;;5016129;28;20034;-83
2022/11/04 03:52:41;;;;;;;15.50;4.22;;;11.50;99.90;;;;;;5013271;28;20030;-82
2022/11/04 03:55:09;;;;;;;10.95;3.05;;;11.50;99.90;;;;;;5015574;28;20128;-83
2022/11/04 03:57:56;;;;;;;12.80;3.65;;;11.50;99.90;;;;;;5021401;28;20040;-84
2022/11/04 04:00:23;;;;;;;16.17;3.38;;;11.60;99.90;;;;;;5020423;28;20030;-84
2022/11/04 04:03:17;;;;;;;16.27;4.57;;;11.60;99.90;;;;;;5014603;28;20034;-79
2022/11/04 04:05:51;;;;;;;10.95;3.45;;;11.60;99.90;;;;;;5006605;28;20509;-82
2022/11/04 04:08:35;;;;;;;23.98;4.60;;;11.60;99.90;;;;;;5011868;28;20418;-82
2022/11/04 04:11:26;;;;;;;14.18;3.30;;;11.60;99.90;;;;;;5006882;28;20023;-81
2022/11/04 04:13:52;;;;;;;;;;;11.60;99.90;;;;;;5032865;28;20528;-79
2022/11/04 04:16:23;;;;;;;10.77;4.32;;;11.40;99.90;;;;;;5023450;28;19909;-79
2022/11/04 04:18:58;;;;;;;10.73;3.38;;;11.20;99.90;;;;;;5014836;28;20026;-84
2022/11/04 04:21:34;;;;;;;18.50;4.15;;;11.00;99.90;;;;;;5010293;28;20038;-82
2022/11/04 04:29:35;;;;;;;22.00;4.10;;;10.70;99.90;;;;;;5014241;28;20028;-83
2022/11/04 04:32:03;;;;;;;13.57;4.03;;;10.60;99.90;;;;;;5031986;28;20026;-84
2022/11/04 04:34:31;;;;;;;19.02;4.20;;;10.60;99.90;;;;;;5014728;28;20065;-81
2022/11/04 04:37:07;;;;;;;15.05;3.80;;;10.60;99.90;;;;;;5022005;28;20507;-81
2022/11/04 04:45:09;;;;;;;15.23;4.72;;;10.70;99.90;;;;;;5007881;28;20036;-80
2022/11/04 04:47:44;;;;;;;24.23;5.70;;;10.70;99.90;;;;;;5018899;28;20571;-81
2022/11/04 04:50:14;;;;;;;11.93;3.92;;;10.60;99.90;;;;;;5015678;28;20030;-81
2022/11/04 04:52:43;;;;;;;10.47;4.07;;;10.70;99.90;;;;;;5022015;28;20113;-81
2022/11/04 04:55:11;;;;;;;16.70;4.47;;;10.60;99.90;;;;;;5012892;28;20285;-81
2022/11/04 04:57:37;;;;;;;9.85;3.60;;;10.70;99.90;;;;;;5030810;28;20034;-80
2022/11/04 05:00:05;;;;;;;10.98;3.70;;;10.70;99.90;;;;;;5016730;28;20026;-85
2022/11/04 05:02:31;;;;;;;22.85;4.50;;;10.70;99.90;;;;;;5011864;28;20075;-82
2022/11/04 05:04:58;;;;;;;18.88;3.72;;;10.70;99.90;;;;;;5010433;28;20031;-83
2022/11/04 05:07:24;;;;;;;15.70;3.70;;;10.70;99.90;;;;;;5030478;28;20018;-80
2022/11/04 05:09:50;;;;;;;9.07;2.78;;;10.70;99.90;;;;;;5009984;28;20133;-83
2022/11/04 05:12:16;;;;;;;14.52;6.40;;;10.70;99.90;;;;;;5012310;28;20026;-83
2022/11/04 05:14:42;;;;;;;13.20;3.60;;;10.80;99.90;;;;;;5009988;28;20052;-80
2022/11/04 05:17:08;;;;;;;17.23;3.53;;;10.80;99.90;;;;;;5010031;28;20022;-80
2022/11/04 05:19:34;;;;;;;20.77;5.57;;;10.90;99.90;;;;;;5011340;28;20093;-81
2022/11/04 05:22:00;;;;;;;13.02;3.70;;;10.90;99.90;;;;;;5010325;28;20032;-84
2022/11/04 05:24:26;;;;;;;11.73;3.60;;;10.90;99.90;;;;;;5013890;28;20132;-84
2022/11/04 05:26:51;;;;;;;13.18;4.20;;;10.90;99.90;;;;;;5012315;28;20425;-85
2022/11/04 05:29:17;;;;;;;12.63;3.92;;;11.00;99.90;;;;;;5016666;28;20095;-82
2022/11/04 05:31:43;;;;;;;17.45;5.32;;;11.00;99.90;;;;;;5010682;28;20041;-81
2022/11/04 05:34:11;;;;;;;13.38;3.53;;;10.90;99.90;;;;;;5012507;28;20534;-82
2022/11/04 05:36:37;;;;;;;15.38;4.38;;;10.90;99.90;;;;;;5013933;28;20029;-82
2022/11/04 05:39:03;;;;;;;17.33;4.13;;;11.00;99.90;;;;;;5012921;28;20117;-80
2022/11/04 05:41:29;;;;;;;12.88;4.10;;;11.00;99.90;;;;;;5012695;28;20018;-82
2022/11/04 05:43:56;;;;;;;16.77;3.75;;;11.00;99.90;;;;;;5019196;28;20100;-82
2022/11/04 05:46:23;;;;;;;13.20;4.47;;;11.00;99.90;;;;;;5013612;28;20029;-81
2022/11/04 05:48:49;;;;;;;16.45;3.50;;;11.10;99.90;;;;;;5017627;28;20034;-81
2022/11/04 05:51:17;;;;;;;11.43;3.03;;;11.20;99.90;;;;;;5011059;28;20048;-85
2022/11/04 05:53:43;;;;;;;21.05;4.45;;;11.30;99.90;;;;;;5017128;28;20038;-82
2022/11/04 05:56:09;;;;;;;19.08;4.45;;;11.30;99.90;;;;;;5021504;28;20029;-79
2022/11/04 05:58:35;;;;;;;12.48;3.47;;;11.30;99.90;;;;;;5025194;28;20151;-82
2022/11/04 06:01:33;;;;;;;8.98;3.63;;;11.30;99.90;;;;;;5038003;28;20172;-76
2022/11/04 06:03:59;;;;;;;14.82;4.32;;;11.10;99.90;;;;;;5023756;28;20101;-80
2022/11/04 06:06:28;;;;;;;8.73;3.20;;;10.90;99.90;;;;;;5019187;28;20026;-79
2022/11/04 06:08:54;;;;;;;16.40;4.65;;;10.70;99.90;;;;;;5021151;28;20030;-78
2022/11/04 06:11:21;;;;;;;13.40;4.00;;;10.60;99.90;;;;;;5013978;28;20398;-80
2022/11/04 06:13:48;;;;;;;8.27;3.05;;;10.60;99.90;;;;;;5018034;28;20116;-79
2022/11/04 06:16:14;;;;;;;14.63;4.38;;;10.60;99.90;;;;;;5020830;28;20037;-79
2022/11/04 06:18:41;;;;;;;12.20;3.85;;;10.70;99.90;;;;;;5032164;28;20091;-82
2022/11/04 06:21:09;;;;;;;11.35;4.45;;;10.70;99.90;;;;;;5022636;28;20064;-80
2022/11/04 06:23:35;;;;;;;10.13;3.80;;;10.70;99.90;;;;;;5029739;28;20030;-82
2022/11/04 06:26:01;;;;;;;14.60;3.38;;;10.70;99.90;;;;;;5022495;28;20056;-82
2022/11/04 06:28:27;;;;;;;9.95;3.45;;;10.70;99.90;;;;;;5017974;28;20037;-78
2022/11/04 06:30:53;;;;;;;6.35;2.70;;;10.70;99.90;;;;;;5015413;28;20529;-80
2022/11/04 06:33:19;;;;;;;8.85;2.75;;;10.80;99.90;;;;;;5017420;28;20060;-82
2022/11/04 06:35:44;;;;;;;10.35;2.90;;;10.90;99.90;;;;;;5023016;28;20435;-80
2022/11/04 06:38:10;;;;;;;11.63;3.80;;;10.90;99.90;;;;;;5033991;28;20076;-78
2022/11/04 06:40:36;;;;;;;11.27;3.60;;;11.00;99.90;;;;;;5018695;28;20021;-82
2022/11/04 06:43:02;;;;;;;10.68;3.17;;;11.00;99.90;;;;;;5035644;28;20030;-83
2022/11/04 06:45:27;;;;;;;9.52;3.55;;;11.00;99.90;;;;;;5020575;28;20027;-82
2022/11/04 06:47:53;;;;;;;5.47;2.40;;;11.00;99.90;;;;;;5027701;28;20509;-83
2022/11/04 06:50:19;;;;;;;8.32;3.55;;;11.10;99.90;;;;;;5020355;28;20401;-80
2022/11/04 06:52:45;;;;;;;14.30;3.95;;;11.10;99.90;;;;;;5025152;28;20052;-79
2022/11/04 06:55:11;;;;;;;11.85;2.88;;;11.00;99.90;;;;;;5014986;28;20030;-82
2022/11/04 06:57:36;;;;;;;3.95;2.58;;;11.00;99.90;;;;;;5021344;28;20041;-82
2022/11/04 07:00:03;;;;;;;7.85;2.78;;;11.00;99.90;;;;;;5027742;28;20026;-81
2022/11/04 07:02:29;;;;;;;4.47;2.53;;;11.00;99.90;;;;;;5025648;28;20475;-85
2022/11/04 07:04:55;;;;;;;4.43;2.42;;;11.10;99.90;;;;;;5022839;28;20041;-79
2022/11/04 07:07:20;;;;;;;9.18;3.17;;;11.10;99.90;;;;;;5022357;28;20030;-80
2022/11/04 07:09:46;;;;;;;7.55;3.20;;;11.10;99.90;;;;;;5024760;28;20048;-84
2022/11/04 07:12:12;;;;;;;8.85;2.78;;;11.10;99.90;;;;;;5012438;28;20034;-80
2022/11/04 07:14:38;;;;;;;10.75;3.45;;;11.10;99.90;;;;;;5019240;28;20459;-85
2022/11/04 07:17:04;;;;;;;5.45;2.92;;;11.20;99.90;;;;;;5014189;28;20030;-81
2022/11/04 07:19:29;;;;;;;10.32;3.15;;;11.00;99.90;;;;;;5021386;28;20019;-86
2022/11/04 07:21:56;;;;;;;7.75;3.10;;;10.70;99.90;;;;;;5011247;28;20028;-83
2022/11/04 07:24:22;;;;;;;9.50;3.03;;;10.40;99.90;;;;;;5023597;28;20015;-85
2022/11/04 07:26:48;;;;;;;24.73;4.35;;;10.20;99.90;;;;;;5017628;28;20025;-84
2022/11/04 07:29:14;;;;;;;11.38;2.75;;;10.00;99.90;;;;;;5017266;28;20018;-85
2022/11/04 07:31:40;;;;;;;4.90;2.60;;;9.90;99.90;;;;;;5019349;28;20379;-84
2022/11/04 07:34:06;;;;;;;10.65;2.55;;;9.70;99.90;;;;;;5013747;28;20018;-85
2022/11/04 07:36:32;;;;;;;4.30;2.28;;;9.60;99.90;;;;;;5012752;28;20080;-86
2022/11/04 07:38:57;;;;;;;9.93;2.90;;;9.50;99.90;;;;;;5023844;28;20096;-85
2022/11/04 07:41:23;;;;;;;4.30;2.10;;;9.40;99.90;;;;;;5012287;28;20025;-87
2022/11/04 07:43:50;;;;;;;3.05;2.25;;;9.40;99.90;;;;;;5022458;28;20091;-84
2022/11/04 07:46:18;;;;;;;34.05;2.58;;;9.40;99.90;;;;;;5025281;28;20164;-85
2022/11/04 07:48:43;;;;;;;6.30;2.85;;;9.40;99.90;;;;;;5025742;28;20486;-82
2022/11/04 07:51:15;;;;;;;2.88;2.30;;;9.40;99.90;;;;;;5017282;28;20049;-81
2022/11/04 07:53:41;;;;;;;6.82;2.92;;;9.30;99.90;;;;;;5018590;28;20034;-82
2022/11/04 07:56:12;;;;;;;4.28;2.72;;;9.20;99.90;;;;;;5006968;28;20083;-80
2022/11/04 07:58:40;;;;;;;3.45;2.60;;;9.10;99.90;;;;;;5013718;28;20482;-81
2022/11/04 08:01:09;;;;;;;2.45;2.10;;;9.10;99.90;;;;;;5013001;28;20469;-80
2022/11/04 08:03:35;;;;;;;2.33;2.00;;;9.00;99.90;;;;;;5015555;28;20038;-81
2022/11/04 08:06:03;;;;;;;5.90;2.50;;;8.80;99.90;;;;;;5017645;28;20030;-80
2022/11/04 08:08:29;;;;;;;5.82;2.53;;;8.80;99.90;;;;;;5025679;28;20528;-80
2022/11/04 08:11:00;;;;;;;2.85;2.30;;;8.70;99.90;;;;;;5015913;28;20028;-81
2022/11/04 08:13:28;;;;;;;2.78;2.22;;;8.60;99.90;;;;;;5028972;28;20080;-83
2022/11/04 08:15:54;;;;;;;6.35;3.63;;;8.60;99.90;;;;;;5022895;28;20032;-84
2022/11/04 08:18:19;;;;;;;4.43;4.03;;;8.60;99.90;;;;;;5007419;28;20041;-85
2022/11/04 08:20:49;;;;;;;4.18;2.80;;;8.60;99.90;;;;;;5018136;28;20553;-83
2022/11/04 08:23:16;;;;;;;5.45;4.15;;;8.60;99.90;;;;;;5016110;28;20034;-83
2022/11/04 08:25:42;;;;;;;6.13;3.85;;;8.70;99.90;;;;;;5021014;28;20040;-82
2022/11/04 08:28:11;;;;;;;2.80;2.58;;;8.70;99.90;;;;;;5030513;28;20038;-84
2022/11/04 08:30:38;;;;;;;3.40;2.67;;;8.80;99.90;;;;;;5010058;28;20053;-82
2022/11/04 08:33:04;;;;;;;4.28;2.60;;;8.80;99.90;;;;;;5029909;28;20068;-84
2022/11/04 08:35:30;;;;;;;6.70;2.63;;;8.90;99.90;;;;;;5026210;28;20034;-81
2022/11/04 08:37:56;;;;;;;6.53;3.40;;;8.90;99.90;;;;;;5021347;28;20538;-83
2022/11/04 08:40:23;;;;;;;4.70;2.90;;;9.00;99.90;;;;;;5017606;28;20026;-79
2022/11/04 08:42:49;;;;;;;4.82;3.47;;;9.00;99.90;;;;;;5006441;28;20022;-78
2022/11/04 08:45:15;;;;;;;3.50;2.47;;;9.10;99.90;;;;;;5006878;28;20081;-79
2022/11/04 08:47:41;;;;;;;5.82;2.80;;;9.20;99.90;;;;;;5017685;28;20067;-80
2022/11/04 08:50:07;;;;;;;2.72;2.50;;;9.20;99.90;;;;;;5011196;28;20023;-79
2022/11/04 08:52:33;;;;;;;3.05;2.60;;;9.30;99.90;;;;;;5015755;28;20042;-80
2022/11/04 08:54:59;;;;;;;4.35;2.97;;;9.30;99.90;;;;;;5011968;28;20030;-80
2022/11/04 08:57:25;;;;;;;3.97;2.67;;;9.40;99.90;;;;;;5017320;28;20025;-80
2022/11/04 08:59:50;;;;;;;6.85;3.33;;;9.40;99.90;;;;;;5039013;28;20398;-79
2022/11/04 09:02:16;;;;;;;6.53;3.30;;;9.40;99.90;;;;;;5018817;28;20550;-80
2022/11/04 09:04:42;;;;;;;10.40;2.80;;;9.50;99.90;;;;;;5017814;28;20029;-79
2022/11/04 09:07:08;;;;;;;6.68;2.90;;;9.50;99.90;;;;;;5015130;28;20026;-80
2022/11/04 09:09:34;;;;;;;4.72;2.97;;;9.50;99.90;;;;;;5012744;28;20194;-83
2022/11/04 09:12:00;;;;;;;4.78;2.45;;;9.50;99.90;;;;;;5025854;28;20026;-83
2022/11/04 09:14:26;;;;;;;5.65;2.80;;;9.40;99.90;;;;;;5017022;28;20567;-81
2022/11/04 09:16:52;;;;;;;8.07;2.53;;;9.30;99.90;;;;;;5021479;28;20080;-77
2022/11/04 09:19:18;;;;;;;4.63;3.88;;;9.20;99.90;;;;;;5017547;28;20022;-79
2022/11/04 09:21:44;;;;;;;2.70;2.50;;;9.20;99.90;;;;;;5016581;28;20018;-80
2022/11/04 09:24:11;;;;;;;4.88;2.72;;;9.30;99.90;;;;;;5017446;28;20061;-80
2022/11/04 09:26:37;;;;;;;4.38;2.60;;;9.30;99.90;;;;;;5013176;28;20053;-80
2022/11/04 09:29:02;;;;;;;5.90;2.72;;;9.50;99.90;;;;;;5018166;28;20521;-81
2022/11/04 09:31:29;;;;;;;8.90;2.92;;;9.70;99.90;;;;;;5022029;28;20025;-82
2022/11/04 09:33:56;;;;;;;5.20;2.80;;;9.90;99.90;;;;;;5022017;28;20034;-79
2022/11/04 09:36:22;;;;;;;5.53;2.60;;;10.00;99.90;;;;;;5014841;28;20022;-81
2022/11/04 09:38:48;;;;;;;4.20;2.70;;;10.00;99.90;;;;;;5018814;28;20014;-80
2022/11/04 09:41:27;;;;;;;3.22;2.20;;;10.00;99.90;;;;;;5017971;28;20025;-81
2022/11/04 09:44:05;;;;;;;3.38;2.60;;;10.10;99.90;;;;;;5027991;28;20611;-82
2022/11/04 09:46:33;;;;;;;3.58;2.30;;;10.10;99.90;;;;;;5016936;28;20470;-82
2022/11/04 09:49:03;;;;;;;2.85;2.55;;;10.20;99.90;;;;;;5018154;28;20080;-81
2022/11/04 09:51:29;;;;;;;5.28;2.72;;;10.30;99.90;;;;;;5011855;28;20494;-81
2022/11/04 09:53:59;;;;;;;10.40;3.30;;;10.20;99.90;;;;;;5017201;28;20040;-80
2022/11/04 09:56:31;;;;;;;5.22;2.35;;;10.20;99.90;;;;;;5012183;28;20025;-82
2022/11/04 09:58:57;;;;;;;4.10;2.42;;;10.10;99.90;;;;;;5033735;28;20037;-81
2022/11/04 10:01:39;;;;;;;3.13;2.30;;;10.10;99.90;;;;;;5023097;28;20019;-80
2022/11/04 10:04:26;;;;;;;4.43;2.40;;;10.10;99.90;;;;;;5018871;28;20026;-82
2022/11/04 10:07:26;;;;;;;4.60;2.40;;;10.10;99.90;;;;;;5023638;28;20087;-83
2022/11/04 10:10:16;;;;;;;4.75;2.80;;;10.10;99.90;;;;;;5019945;28;20033;-82
2022/11/04 10:12:53;;;;;;;9.13;3.03;;;10.20;99.90;;;;;;5015829;28;20088;-82
2022/11/04 10:15:38;;;;;;;5.38;3.00;;;10.30;99.90;;;;;;5014873;28;20042;-83
2022/11/04 10:18:34;;;;;;;9.70;2.88;;;10.50;99.90;;;;;;5026746;28;20030;-83
2022/11/04 10:21:15;;;;;;;9.70;2.30;;;10.60;99.90;;;;;;5023969;28;20022;-83
2022/11/04 10:24:22;;;;;;;7.60;2.70;;;10.60;99.90;;;;;;5027172;28;20483;-80
2022/11/04 10:27:03;;;;;;;5.25;2.75;;;10.70;99.90;;;;;;5028154;28;20033;-81
2022/11/04 10:29:56;;;;;;;5.97;3.30;;;10.80;99.90;;;;;;5023084;28;20022;-84
2022/11/04 10:32:42;;;;;;;6.93;2.75;;;11.00;99.90;;;;;;5025499;28;20044;-83
2022/11/04 10:35:37;;;;;;;6.90;2.90;;;11.20;99.90;;;;;;5020603;28;20026;-84
2022/11/04 10:38:21;;;;;;;5.68;2.60;;;11.30;99.90;;;;;;5019750;28;20088;-82
2022/11/04 10:40:51;;;;;;;5.57;2.30;;;11.30;99.90;;;;;;5016633;28;20029;-81
2022/11/04 10:43:40;;;;;;;11.27;3.30;;;11.50;99.90;;;;;;5022821;28;20113;-80
2022/11/04 10:46:15;;;;;;;6.18;3.13;;;11.70;99.90;;;;;;5014161;28;20037;-80
2022/11/04 10:48:59;;;;;;;13.48;3.75;;;11.80;99.90;;;;;;5020040;28;20083;-82
2022/11/04 10:51:25;;;;;;;8.75;4.10;;;11.80;99.90;;;;;;5015965;28;20022;-81
2022/11/04 10:53:55;;;;;;;9.35;3.55;;;12.00;99.90;;;;;;5030539;28;20114;-82
2022/11/04 10:56:30;;;;;;;14.50;3.40;;;12.10;99.90;;;;;;5014161;28;20076;-82
2022/11/04 10:58:58;;;;;;;5.20;2.65;;;12.10;99.90;;;;;;5028507;28;20095;-79
2022/11/04 11:01:33;;;;;;;13.95;5.95;;;12.10;99.90;;;;;;5013765;28;20507;-81
2022/11/04 11:04:00;;;;;;;9.73;3.92;;;12.10;99.90;;;;;;5023008;28;20022;-79
2022/11/04 11:06:31;;;;;;;13.45;3.30;;;12.00;99.90;;;;;;5016854;28;20030;-81
2022/11/04 11:09:11;;;;;;;7.40;2.97;;;12.00;99.90;;;;;;5030971;28;20025;-80
2022/11/04 11:11:40;;;;;;;8.55;3.85;;;11.90;99.90;;;;;;5030735;28;20026;-82
2022/11/04 11:14:28;;;;;;;14.70;4.43;;;11.90;99.90;;;;;;5031765;28;20257;-80
2022/11/04 11:17:19;;;;;;;9.80;3.53;;;12.00;99.90;;;;;;5011132;28;20124;-80
2022/11/04 11:19:49;;;;;;;5.68;3.25;;;12.10;99.90;;;;;;5015469;28;20069;-81
2022/11/04 11:22:40;;;;;;;13.27;4.10;;;12.10;99.90;;;;;;5022063;28;20025;-80
2022/11/04 11:25:30;;;;;;;16.58;5.20;;;12.10;99.90;;;;;;5011035;28;20026;-78
2022/11/04 11:28:02;;;;;;;12.88;3.72;;;12.00;99.90;;;;;;5015843;28;20041;-83
2022/11/04 11:30:31;;;;;;;13.32;3.58;;;11.90;99.90;;;;;;5028776;28;20193;-80
2022/11/04 11:33:14;;;;;;;12.75;3.88;;;12.00;99.90;;;;;;5018702;28;20109;-82
2022/11/04 11:35:45;;;;;;;15.35;3.85;;;12.20;99.90;;;;;;5008994;28;20053;-79
2022/11/04 11:38:26;;;;;;;13.27;4.30;;;12.40;99.90;;;;;;5027543;28;20030;-81
2022/11/04 11:41:04;;;;;;;16.27;3.28;;;12.50;99.90;;;;;;5011527;28;20322;-79
2022/11/04 11:43:32;;;;;;;20.02;3.90;;;12.60;99.90;;;;;;5017467;28;20105;-80
2022/11/04 11:45:59;;;;;;;15.57;4.05;;;12.70;99.90;;;;;;5011860;28;20504;-80
2022/11/04 11:48:31;;;;;;;12.57;4.07;;;12.80;99.90;;;;;;5025013;28;20075;-82
2022/11/04 11:50:59;;;;;;;24.77;4.20;;;12.80;99.90;;;;;;5022230;28;20557;-79
2022/11/04 11:53:28;;;;;;;8.60;3.30;;;12.80;99.90;;;;;;5019231;28;20052;-78
2022/11/04 11:56:13;;;;;;;17.70;4.27;;;12.80;99.90;;;;;;5013903;28;20022;-81
2022/11/04 11:58:47;;;;;;;15.57;5.13;;;12.80;99.90;;;;;;5027654;28;20025;-80
2022/11/04 12:01:31;;;;;;;17.50;4.00;;;12.70;99.90;;;;;;5012526;28;20502;-82
2022/11/04 12:03:59;;;;;;;10.40;3.15;;;12.70;99.90;;;;;;5020766;28;20105;-79
2022/11/04 12:06:30;;;;;;;11.05;3.03;;;12.80;99.90;;;;;;5015615;28;20022;-80
2022/11/04 12:09:20;;;;;;;7.65;2.97;;;12.80;99.90;;;;;;5019813;28;20490;-79
2022/11/04 12:12:09;;;;;;;4.25;2.42;;;12.70;99.90;;;;;;5017916;28;20025;-83
2022/11/04 12:14:54;;;;;;;9.48;3.35;;;12.30;99.90;;;;;;5016135;28;20045;-83
2022/11/04 12:17:32;;;;;;;6.70;3.30;;;12.10;99.90;;;;;;5016957;28;20028;-84
2022/11/04 12:20:25;;;;;;;17.02;4.72;;;12.00;99.90;;;;;;5023991;28;20383;-84
2022/11/04 12:23:07;;;;;;;9.48;3.08;;;11.80;99.90;;;;;;5025558;28;20021;-84
2022/11/04 12:25:47;;;;;;;17.23;4.40;;;11.60;99.90;;;;;;5020122;28;20022;-77
2022/11/04 12:28:51;;;;;;;15.93;4.70;;;11.60;99.90;;;;;;5032455;28;20025;-84
2022/11/04 12:31:16;;;;;;;16.08;4.30;;;11.50;99.90;;;;;;5022616;28;20026;-84
2022/11/04 12:34:19;;;;;;;17.42;3.30;;;11.50;99.90;;;;;;5022572;28;20034;-79
2022/11/04 12:37:00;;;;;;;8.63;3.15;;;11.60;99.90;;;;;;5018851;28;20068;-85
2022/11/04 12:40:03;;;;;;;14.90;3.72;;;11.70;99.90;;;;;;5023189;28;20030;-81
2022/11/04 12:42:34;;;;;;;7.20;3.30;;;11.80;99.90;;;;;;5015719;28;20073;-81
2022/11/04 12:45:21;;;;;;;18.90;4.78;;;11.80;99.90;;;;;;5013682;28;20041;-78
2022/11/04 12:47:48;;;;;;;15.90;3.92;;;11.70;99.90;;;;;;5013814;28;20398;-83
2022/11/04 12:50:46;;;;;;;10.35;4.07;;;11.80;99.90;;;;;;5015141;28;20037;-79
2022/11/04 12:53:30;;;;;;;16.35;3.85;;;11.90;99.90;;;;;;5020167;28;20026;-81
2022/11/04 12:56:18;;;;;;;13.25;3.10;;;12.10;99.90;;;;;;5013227;28;20033;-80
2022/11/04 12:59:29;;;;;;;7.63;3.40;;;12.40;99.90;;;;;;5018273;28;20505;-81
2022/11/04 13:02:28;;;;;;;10.52;2.60;;;12.60;99.90;;;;;;5007258;28;20088;-79
2022/11/04 13:04:54;;;;;;;5.95;3.13;;;12.80;99.90;;;;;;5013402;28;20091;-84
2022/11/04 13:07:29;;;;;;;11.48;4.25;;;12.80;99.90;;;;;;5020749;28;20034;-81
2022/11/04 13:09:59;;;;;;;14.35;3.42;;;12.90;99.90;;;;;;5016175;28;20080;-84
2022/11/04 13:12:31;;;;;;;11.93;3.93;;;12.90;99.90;;;;;;5015783;28;20693;-84
2022/11/04 13:15:13;;;;;;;8.98;3.72;;;12.80;99.90;;;;;;5015851;28;20116;-84
2022/11/04 13:17:40;;;;;;;13.32;3.80;;;12.60;99.90;;;;;;5016782;28;20026;-82
2022/11/04 13:20:14;;;;;;;14.38;5.38;;;12.40;99.90;;;;;;5015716;28;20099;-80
2022/11/04 13:22:45;;;;;;;8.88;4.00;;;12.50;99.90;;;;;;5017116;28;20101;-81
2022/11/04 13:25:29;;;;;;;17.70;4.07;;;12.60;99.90;;;;;;5016785;28;20026;-85
2022/11/04 13:27:55;;;;;;;26.65;5.80;;;12.70;99.90;;;;;;5016770;28;20040;-83
2022/11/04 13:30:46;;;;;;;13.75;3.88;;;12.80;99.90;;;;;;5016714;28;20128;-77
2022/11/04 13:33:49;;;;;;;8.00;3.10;;;12.80;99.90;;;;;;5016638;28;20561;-82
2022/11/04 13:36:24;;;;;;;11.30;3.03;;;13.00;99.90;;;;;;5016885;28;20565;-79
2022/11/04 13:38:56;;;;;;;10.20;2.47;;;13.00;99.90;;;;;;5017044;28;20022;-84
2022/11/04 13:41:34;;;;;;;8.70;3.38;;;13.00;99.90;;;;;;5016857;28;20131;-81